sensor_id;sensor_type;location;lat;lon;timestamp;pressure;altitude;pressure_sealevel;temperature;humidity
8717;BME280;4395;48.554;8.820;2023-06-22T00:00:09;95949.44;;;23.31;100.00
8717;BME280;4395;48.554;8.820;2023-06-22T00:02:14;95961.28;;;22.38;100.00
8717;BME280;4395;48.554;8.820;2023-06-22T00:04:17;95968.63;;;22.64;100.00
8717;BME280;4395;48.554;8.820;2023-06-22T00:06:21;95966.84;;;23.35;100.00
8717;BME280;4395;48.554;8.820;2023-06-22T00:08:24;95964.25;;;23.09;100.00
8717;BME280;4395;48.554;8.820;2023-06-22T00:10:26;95972.88;;;22.44;100.00
8717;BME280;4395;48.554;8.820;2023-06-22T00:12:30;95972.16;;;23.11;100.00
8717;BME280;4395;48.554;8.820;2023-06-22T00:14:33;95967.34;;;23.67;100.00
8717;BME280;4395;48.554;8.820;2023-06-22T00:16:36;95958.03;;;22.45;100.00
8717;BME280;4395;48.554;8.820;2023-06-22T00:18:39;95961.94;;;22.35;100.00
8717;BME280;4395;48.554;8.820;2023-06-22T00:20:48;95971.59;;;22.41;100.00
8717;BME280;4395;48.554;8.820;2023-06-22T00:22:52;95961.75;;;22.40;100.00
8717;BME280;4395;48.554;8.820;2023-06-22T00:24:55;95960.06;;;22.65;100.00
8717;BME280;4395;48.554;8.820;2023-06-22T00:26:58;95949.75;;;22.16;100.00
8717;BME280;4395;48.554;8.820;2023-06-22T00:29:00;95959.88;;;22.70;100.00
8717;BME280;4395;48.554;8.820;2023-06-22T00:31:04;95962.63;;;21.80;100.00
8717;BME280;4395;48.554;8.820;2023-06-22T00:33:07;95963.34;;;21.21;100.00
8717;BME280;4395;48.554;8.820;2023-06-22T00:35:11;95950.03;;;21.28;100.00
8717;BME280;4395;48.554;8.820;2023-06-22T00:37:14;95954.16;;;22.55;100.00
8717;BME280;4395;48.554;8.820;2023-06-22T00:39:18;95964.38;;;21.59;100.00
8717;BME280;4395;48.554;8.820;2023-06-22T00:41:21;95979.53;;;21.00;100.00
8717;BME280;4395;48.554;8.820;2023-06-22T00:43:23;95982.22;;;20.91;100.00
8717;BME280;4395;48.554;8.820;2023-06-22T00:45:26;95979.19;;;22.19;100.00
8717;BME280;4395;48.554;8.820;2023-06-22T00:47:29;95970.00;;;22.78;100.00
8717;BME280;4395;48.554;8.820;2023-06-22T00:49:32;95976.94;;;22.21;100.00
8717;BME280;4395;48.554;8.820;2023-06-22T00:51:35;95997.34;;;20.97;100.00
8717;BME280;4395;48.554;8.820;2023-06-22T00:53:39;96004.75;;;21.54;100.00
8717;BME280;4395;48.554;8.820;2023-06-22T00:55:44;96001.88;;;21.67;100.00
8717;BME280;4395;48.554;8.820;2023-06-22T00:57:48;95990.78;;;21.64;100.00
8717;BME280;4395;48.554;8.820;2023-06-22T00:59:51;95982.88;;;22.23;100.00
8717;BME280;4395;48.554;8.820;2023-06-22T01:01:54;95974.22;;;22.03;100.00
8717;BME280;4395;48.554;8.820;2023-06-22T01:03:59;95982.56;;;21.81;100.00
8717;BME280;4395;48.554;8.820;2023-06-22T01:06:07;95981.84;;;22.53;100.00
8717;BME280;4395;48.554;8.820;2023-06-22T01:08:23;95976.50;;;22.65;100.00
8717;BME280;4395;48.554;8.820;2023-06-22T01:10:35;95974.03;;;21.65;100.00
8717;BME280;4395;48.554;8.820;2023-06-22T01:12:47;95969.03;;;21.33;100.00
8717;BME280;4395;48.554;8.820;2023-06-22T01:14:56;95967.13;;;21.50;100.00
8717;BME280;4395;48.554;8.820;2023-06-22T01:17:01;95964.88;;;22.13;100.00
8717;BME280;4395;48.554;8.820;2023-06-22T01:19:13;95961.63;;;21.33;100.00
8717;BME280;4395;48.554;8.820;2023-06-22T01:21:21;95954.41;;;21.80;100.00
8717;BME280;4395;48.554;8.820;2023-06-22T01:23:29;95962.84;;;22.57;100.00
8717;BME280;4395;48.554;8.820;2023-06-22T01:25:43;95953.00;;;22.64;100.00
8717;BME280;4395;48.554;8.820;2023-06-22T01:27:55;95956.03;;;21.73;100.00
8717;BME280;4395;48.554;8.820;2023-06-22T01:30:05;95948.06;;;21.11;100.00
8717;BME280;4395;48.554;8.820;2023-06-22T01:32:12;95944.69;;;21.14;100.00
8717;BME280;4395;48.554;8.820;2023-06-22T01:34:16;95951.53;;;21.60;100.00
8717;BME280;4395;48.554;8.820;2023-06-22T01:36:21;95946.34;;;22.19;100.00
8717;BME280;4395;48.554;8.820;2023-06-22T01:38:24;95953.41;;;22.37;100.00
8717;BME280;4395;48.554;8.820;2023-06-22T01:40:28;95956.50;;;21.66;100.00
8717;BME280;4395;48.554;8.820;2023-06-22T01:42:33;95960.34;;;21.39;100.00
8717;BME280;4395;48.554;8.820;2023-06-22T01:44:37;95955.34;;;21.24;100.00
8717;BME280;4395;48.554;8.820;2023-06-22T01:46:45;95974.44;;;20.22;100.00
8717;BME280;4395;48.554;8.820;2023-06-22T01:48:49;95970.25;;;20.78;100.00
8717;BME280;4395;48.554;8.820;2023-06-22T01:50:53;95970.03;;;21.80;100.00
8717;BME280;4395;48.554;8.820;2023-06-22T01:52:56;95970.97;;;22.19;100.00
8717;BME280;4395;48.554;8.820;2023-06-22T01:55:00;95964.38;;;21.50;100.00
8717;BME280;4395;48.554;8.820;2023-06-22T01:57:04;95975.50;;;20.66;100.00
8717;BME280;4395;48.554;8.820;2023-06-22T01:59:11;95973.75;;;21.01;100.00
8717;BME280;4395;48.554;8.820;2023-06-22T02:01:21;95954.56;;;21.93;100.00
8717;BME280;4395;48.554;8.820;2023-06-22T02:03:31;95963.41;;;21.90;100.00
8717;BME280;4395;48.554;8.820;2023-06-22T02:05:39;95973.78;;;20.79;100.00
8717;BME280;4395;48.554;8.820;2023-06-22T02:07:47;95974.09;;;20.77;100.00
8717;BME280;4395;48.554;8.820;2023-06-22T02:09:52;95935.44;;;21.75;100.00
8717;BME280;4395;48.554;8.820;2023-06-22T02:11:58;95934.78;;;21.53;100.00
8717;BME280;4395;48.554;8.820;2023-06-22T02:14:03;95946.09;;;21.03;100.00
8717;BME280;4395;48.554;8.820;2023-06-22T02:16:07;95969.31;;;19.99;100.00
8717;BME280;4395;48.554;8.820;2023-06-22T02:18:10;95965.97;;;20.55;100.00
8717;BME280;4395;48.554;8.820;2023-06-22T02:20:15;95957.63;;;21.39;100.00
8717;BME280;4395;48.554;8.820;2023-06-22T02:22:18;95949.41;;;21.91;100.00
8717;BME280;4395;48.554;8.820;2023-06-22T02:24:21;95940.09;;;21.58;100.00
8717;BME280;4395;48.554;8.820;2023-06-22T02:26:25;95941.69;;;21.33;100.00
8717;BME280;4395;48.554;8.820;2023-06-22T02:28:29;95962.59;;;20.80;100.00
8717;BME280;4395;48.554;8.820;2023-06-22T02:30:32;95958.00;;;20.67;100.00
8717;BME280;4395;48.554;8.820;2023-06-22T02:32:34;95960.53;;;20.95;100.00
8717;BME280;4395;48.554;8.820;2023-06-22T02:34:37;95950.53;;;21.30;100.00
8717;BME280;4395;48.554;8.820;2023-06-22T02:36:41;95938.50;;;21.74;100.00
8717;BME280;4395;48.554;8.820;2023-06-22T02:38:53;95927.56;;;21.39;100.00
8717;BME280;4395;48.554;8.820;2023-06-22T02:40:57;95932.22;;;21.47;100.00
8717;BME280;4395;48.554;8.820;2023-06-22T02:43:00;95946.53;;;20.26;100.00
8717;BME280;4395;48.554;8.820;2023-06-22T02:45:05;95957.59;;;19.98;100.00
8717;BME280;4395;48.554;8.820;2023-06-22T02:47:08;95948.34;;;20.61;100.00
8717;BME280;4395;48.554;8.820;2023-06-22T02:49:11;95935.56;;;21.27;100.00
8717;BME280;4395;48.554;8.820;2023-06-22T02:51:14;95935.91;;;21.77;100.00
8717;BME280;4395;48.554;8.820;2023-06-22T02:53:19;95939.28;;;22.18;100.00
8717;BME280;4395;48.554;8.820;2023-06-22T02:55:22;95942.31;;;22.25;100.00
8717;BME280;4395;48.554;8.820;2023-06-22T02:57:29;95931.25;;;21.43;100.00
8717;BME280;4395;48.554;8.820;2023-06-22T02:59:32;95940.41;;;21.91;100.00
8717;BME280;4395;48.554;8.820;2023-06-22T03:01:42;95928.31;;;22.18;100.00
8717;BME280;4395;48.554;8.820;2023-06-22T03:03:54;95929.59;;;22.29;100.00
8717;BME280;4395;48.554;8.820;2023-06-22T03:05:57;95930.47;;;20.46;100.00
8717;BME280;4395;48.554;8.820;2023-06-22T03:07:59;95939.13;;;19.95;100.00
8717;BME280;4395;48.554;8.820;2023-06-22T03:10:08;95942.91;;;19.85;100.00
8717;BME280;4395;48.554;8.820;2023-06-22T03:12:12;95943.63;;;21.32;100.00
8717;BME280;4395;48.554;8.820;2023-06-22T03:14:22;95925.16;;;20.81;100.00
8717;BME280;4395;48.554;8.820;2023-06-22T03:16:27;95933.22;;;20.95;100.00
8717;BME280;4395;48.554;8.820;2023-06-22T03:18:31;95937.13;;;20.71;100.00
8717;BME280;4395;48.554;8.820;2023-06-22T03:20:34;95936.94;;;20.06;100.00
8717;BME280;4395;48.554;8.820;2023-06-22T03:22:37;95937.97;;;19.51;100.00
8717;BME280;4395;48.554;8.820;2023-06-22T03:24:40;95941.09;;;19.09;100.00
8717;BME280;4395;48.554;8.820;2023-06-22T03:26:44;95930.50;;;20.55;100.00
8717;BME280;4395;48.554;8.820;2023-06-22T03:28:48;95926.09;;;21.50;100.00
8717;BME280;4395;48.554;8.820;2023-06-22T03:30:51;95913.03;;;21.13;100.00
8717;BME280;4395;48.554;8.820;2023-06-22T03:32:54;95918.78;;;21.03;100.00
8717;BME280;4395;48.554;8.820;2023-06-22T03:34:56;95912.06;;;21.17;100.00
8717;BME280;4395;48.554;8.820;2023-06-22T03:37:01;95921.03;;;21.01;100.00
8717;BME280;4395;48.554;8.820;2023-06-22T03:39:04;95907.19;;;20.97;100.00
8717;BME280;4395;48.554;8.820;2023-06-22T03:41:07;95914.19;;;21.38;100.00
8717;BME280;4395;48.554;8.820;2023-06-22T03:43:11;95914.34;;;21.85;100.00
8717;BME280;4395;48.554;8.820;2023-06-22T03:45:14;95911.44;;;22.16;100.00
8717;BME280;4395;48.554;8.820;2023-06-22T03:47:17;95917.19;;;22.23;100.00
8717;BME280;4395;48.554;8.820;2023-06-22T03:49:20;95916.28;;;21.84;100.00
8717;BME280;4395;48.554;8.820;2023-06-22T03:51:23;95932.84;;;22.13;100.00
8717;BME280;4395;48.554;8.820;2023-06-22T03:53:25;95924.56;;;22.39;100.00
8717;BME280;4395;48.554;8.820;2023-06-22T03:55:28;95929.34;;;22.51;100.00
8717;BME280;4395;48.554;8.820;2023-06-22T03:57:31;95921.19;;;22.34;100.00
8717;BME280;4395;48.554;8.820;2023-06-22T03:59:35;95918.56;;;22.55;100.00
8717;BME280;4395;48.554;8.820;2023-06-22T04:01:38;95908.38;;;21.91;100.00
8717;BME280;4395;48.554;8.820;2023-06-22T04:03:41;95905.97;;;22.07;100.00
8717;BME280;4395;48.554;8.820;2023-06-22T04:05:44;95900.25;;;22.38;100.00
8717;BME280;4395;48.554;8.820;2023-06-22T04:07:47;95899.44;;;22.75;100.00
8717;BME280;4395;48.554;8.820;2023-06-22T04:09:50;95898.91;;;21.71;100.00
8717;BME280;4395;48.554;8.820;2023-06-22T04:11:53;95906.16;;;21.85;100.00
8717;BME280;4395;48.554;8.820;2023-06-22T04:13:55;95908.69;;;20.33;100.00
8717;BME280;4395;48.554;8.820;2023-06-22T04:15:59;95907.22;;;20.58;100.00
8717;BME280;4395;48.554;8.820;2023-06-22T04:18:03;95905.16;;;20.32;100.00
8717;BME280;4395;48.554;8.820;2023-06-22T04:20:07;95898.78;;;21.59;100.00
8717;BME280;4395;48.554;8.820;2023-06-22T04:22:10;95897.41;;;22.26;100.00
8717;BME280;4395;48.554;8.820;2023-06-22T04:24:13;95885.84;;;21.94;100.00
8717;BME280;4395;48.554;8.820;2023-06-22T04:26:16;95886.91;;;20.81;100.00
8717;BME280;4395;48.554;8.820;2023-06-22T04:28:18;95891.25;;;20.82;100.00
8717;BME280;4395;48.554;8.820;2023-06-22T04:30:21;95892.63;;;20.62;100.00
8717;BME280;4395;48.554;8.820;2023-06-22T04:32:25;95893.06;;;21.04;100.00
8717;BME280;4395;48.554;8.820;2023-06-22T04:34:29;95894.38;;;20.58;100.00
8717;BME280;4395;48.554;8.820;2023-06-22T04:36:33;95888.47;;;21.65;100.00
8717;BME280;4395;48.554;8.820;2023-06-22T04:38:39;95887.41;;;22.30;100.00
8717;BME280;4395;48.554;8.820;2023-06-22T04:40:42;95895.63;;;22.21;100.00
8717;BME280;4395;48.554;8.820;2023-06-22T04:42:44;95891.00;;;22.04;100.00
8717;BME280;4395;48.554;8.820;2023-06-22T04:44:54;95895.00;;;21.12;100.00
8717;BME280;4395;48.554;8.820;2023-06-22T04:46:58;95900.91;;;20.48;100.00
8717;BME280;4395;48.554;8.820;2023-06-22T04:49:06;95895.41;;;20.79;100.00
8717;BME280;4395;48.554;8.820;2023-06-22T04:51:11;95882.44;;;20.94;100.00
8717;BME280;4395;48.554;8.820;2023-06-22T04:53:13;95884.00;;;20.77;100.00
8717;BME280;4395;48.554;8.820;2023-06-22T04:55:16;95873.03;;;20.69;100.00
8717;BME280;4395;48.554;8.820;2023-06-22T04:57:21;95868.72;;;20.76;100.00
8717;BME280;4395;48.554;8.820;2023-06-22T04:59:34;95859.22;;;20.65;100.00
8717;BME280;4395;48.554;8.820;2023-06-22T05:01:37;95871.56;;;20.54;100.00
8717;BME280;4395;48.554;8.820;2023-06-22T05:03:39;95857.47;;;20.69;100.00
8717;BME280;4395;48.554;8.820;2023-06-22T05:05:44;95860.69;;;20.71;100.00
8717;BME280;4395;48.554;8.820;2023-06-22T05:07:50;95866.78;;;20.68;100.00
8717;BME280;4395;48.554;8.820;2023-06-22T05:09:54;95860.91;;;20.83;100.00
8717;BME280;4395;48.554;8.820;2023-06-22T05:11:57;95867.41;;;20.65;100.00
8717;BME280;4395;48.554;8.820;2023-06-22T05:14:01;95867.28;;;20.79;100.00
8717;BME280;4395;48.554;8.820;2023-06-22T05:16:04;95869.66;;;20.63;100.00
8717;BME280;4395;48.554;8.820;2023-06-22T05:18:07;95871.16;;;20.78;100.00
8717;BME280;4395;48.554;8.820;2023-06-22T05:20:12;95863.16;;;20.90;100.00
8717;BME280;4395;48.554;8.820;2023-06-22T05:22:16;95865.91;;;20.99;100.00
8717;BME280;4395;48.554;8.820;2023-06-22T05:24:19;95859.81;;;21.02;100.00
8717;BME280;4395;48.554;8.820;2023-06-22T05:26:22;95867.34;;;20.96;100.00
8717;BME280;4395;48.554;8.820;2023-06-22T05:28:25;95864.63;;;21.05;100.00
8717;BME280;4395;48.554;8.820;2023-06-22T05:30:27;95865.13;;;21.07;100.00
8717;BME280;4395;48.554;8.820;2023-06-22T05:32:31;95867.69;;;21.21;100.00
8717;BME280;4395;48.554;8.820;2023-06-22T05:34:33;95873.69;;;21.31;100.00
8717;BME280;4395;48.554;8.820;2023-06-22T05:36:36;95875.72;;;21.00;100.00
8717;BME280;4395;48.554;8.820;2023-06-22T05:38:41;95879.09;;;21.14;100.00
8717;BME280;4395;48.554;8.820;2023-06-22T05:40:44;95872.19;;;20.99;100.00
8717;BME280;4395;48.554;8.820;2023-06-22T05:42:46;95876.56;;;21.26;100.00
8717;BME280;4395;48.554;8.820;2023-06-22T05:44:49;95867.75;;;21.38;100.00
8717;BME280;4395;48.554;8.820;2023-06-22T05:46:52;95877.06;;;21.54;100.00
8717;BME280;4395;48.554;8.820;2023-06-22T05:48:54;95871.91;;;21.61;100.00
8717;BME280;4395;48.554;8.820;2023-06-22T05:50:57;95866.94;;;21.55;100.00
8717;BME280;4395;48.554;8.820;2023-06-22T05:53:00;95870.00;;;21.27;100.00
8717;BME280;4395;48.554;8.820;2023-06-22T05:55:05;95869.34;;;21.47;100.00
8717;BME280;4395;48.554;8.820;2023-06-22T05:57:08;95860.31;;;21.64;100.00
8717;BME280;4395;48.554;8.820;2023-06-22T05:59:11;95862.09;;;21.69;100.00
8717;BME280;4395;48.554;8.820;2023-06-22T06:01:14;95872.00;;;21.99;100.00
8717;BME280;4395;48.554;8.820;2023-06-22T06:03:17;95868.13;;;22.18;100.00
8717;BME280;4395;48.554;8.820;2023-06-22T06:05:20;95863.06;;;22.37;100.00
8717;BME280;4395;48.554;8.820;2023-06-22T06:07:24;95871.66;;;22.56;100.00
8717;BME280;4395;48.554;8.820;2023-06-22T06:09:27;95869.88;;;22.60;100.00
8717;BME280;4395;48.554;8.820;2023-06-22T06:11:31;95872.47;;;22.01;100.00
8717;BME280;4395;48.554;8.820;2023-06-22T06:13:34;95865.47;;;22.38;100.00
8717;BME280;4395;48.554;8.820;2023-06-22T06:15:37;95858.59;;;22.62;100.00
8717;BME280;4395;48.554;8.820;2023-06-22T06:17:45;95855.03;;;22.32;100.00
8717;BME280;4395;48.554;8.820;2023-06-22T06:19:48;95864.66;;;22.38;100.00
8717;BME280;4395;48.554;8.820;2023-06-22T06:21:51;95842.50;;;22.22;100.00
8717;BME280;4395;48.554;8.820;2023-06-22T06:23:54;95867.75;;;22.66;100.00
8717;BME280;4395;48.554;8.820;2023-06-22T06:25:57;95857.75;;;22.70;100.00
8717;BME280;4395;48.554;8.820;2023-06-22T06:28:01;95872.34;;;23.12;100.00
8717;BME280;4395;48.554;8.820;2023-06-22T06:30:05;95875.34;;;23.19;100.00
8717;BME280;4395;48.554;8.820;2023-06-22T06:32:08;95877.03;;;23.32;100.00
8717;BME280;4395;48.554;8.820;2023-06-22T06:34:11;95873.13;;;23.42;100.00
8717;BME280;4395;48.554;8.820;2023-06-22T06:36:14;95869.25;;;23.64;100.00
8717;BME280;4395;48.554;8.820;2023-06-22T06:38:17;95872.13;;;23.67;100.00
8717;BME280;4395;48.554;8.820;2023-06-22T06:40:19;95869.44;;;23.80;100.00
8717;BME280;4395;48.554;8.820;2023-06-22T06:42:22;95865.13;;;23.28;100.00
8717;BME280;4395;48.554;8.820;2023-06-22T06:44:27;95869.72;;;23.66;100.00
8717;BME280;4395;48.554;8.820;2023-06-22T06:46:30;95866.31;;;23.69;100.00
8717;BME280;4395;48.554;8.820;2023-06-22T06:48:32;95877.91;;;23.87;100.00
8717;BME280;4395;48.554;8.820;2023-06-22T06:50:35;95866.75;;;24.04;100.00
8717;BME280;4395;48.554;8.820;2023-06-22T06:52:38;95864.44;;;24.27;100.00
8717;BME280;4395;48.554;8.820;2023-06-22T06:54:41;95860.69;;;24.44;100.00
8717;BME280;4395;48.554;8.820;2023-06-22T06:56:44;95855.41;;;24.39;100.00
8717;BME280;4395;48.554;8.820;2023-06-22T06:58:50;95861.97;;;24.58;100.00
8717;BME280;4395;48.554;8.820;2023-06-22T07:00:55;95856.13;;;24.60;100.00
8717;BME280;4395;48.554;8.820;2023-06-22T07:02:57;95851.66;;;24.67;100.00
8717;BME280;4395;48.554;8.820;2023-06-22T07:05:00;95845.00;;;24.81;100.00
8717;BME280;4395;48.554;8.820;2023-06-22T07:07:05;95843.88;;;24.69;100.00
8717;BME280;4395;48.554;8.820;2023-06-22T07:09:08;95838.13;;;24.87;100.00
8717;BME280;4395;48.554;8.820;2023-06-22T07:11:11;95827.25;;;24.90;100.00
8717;BME280;4395;48.554;8.820;2023-06-22T07:13:14;95828.75;;;25.00;100.00
8717;BME280;4395;48.554;8.820;2023-06-22T07:15:17;95833.44;;;25.12;100.00
8717;BME280;4395;48.554;8.820;2023-06-22T07:17:21;95837.44;;;25.14;100.00
8717;BME280;4395;48.554;8.820;2023-06-22T07:19:24;95821.03;;;25.18;100.00
8717;BME280;4395;48.554;8.820;2023-06-22T07:21:28;95820.66;;;25.31;100.00
8717;BME280;4395;48.554;8.820;2023-06-22T07:23:31;95812.38;;;25.44;100.00
8717;BME280;4395;48.554;8.820;2023-06-22T07:25:33;95814.88;;;25.49;100.00
8717;BME280;4395;48.554;8.820;2023-06-22T07:27:37;95815.06;;;25.28;100.00
8717;BME280;4395;48.554;8.820;2023-06-22T07:29:41;95802.88;;;25.41;100.00
8717;BME280;4395;48.554;8.820;2023-06-22T07:31:44;95808.66;;;25.52;99.89
8717;BME280;4395;48.554;8.820;2023-06-22T07:33:49;95810.91;;;25.74;99.03
8717;BME280;4395;48.554;8.820;2023-06-22T07:35:52;95807.78;;;25.76;99.30
8717;BME280;4395;48.554;8.820;2023-06-22T07:37:54;95814.78;;;25.73;98.49
8717;BME280;4395;48.554;8.820;2023-06-22T07:39:57;95829.00;;;25.75;98.35
8717;BME280;4395;48.554;8.820;2023-06-22T07:42:00;95832.94;;;25.90;96.03
8717;BME280;4395;48.554;8.820;2023-06-22T07:44:03;95845.72;;;25.82;96.73
8717;BME280;4395;48.554;8.820;2023-06-22T07:46:06;95840.59;;;25.96;95.79
8717;BME280;4395;48.554;8.820;2023-06-22T07:48:09;95847.06;;;25.88;96.66
8717;BME280;4395;48.554;8.820;2023-06-22T07:50:13;95850.09;;;25.99;96.24
8717;BME280;4395;48.554;8.820;2023-06-22T07:52:16;95855.03;;;26.06;95.55
8717;BME280;4395;48.554;8.820;2023-06-22T07:54:19;95868.56;;;25.99;96.42
8717;BME280;4395;48.554;8.820;2023-06-22T07:56:22;95868.91;;;26.25;94.66
8717;BME280;4395;48.554;8.820;2023-06-22T07:58:24;95888.88;;;26.66;92.39
8717;BME280;4395;48.554;8.820;2023-06-22T08:00:27;95877.41;;;26.48;92.16
8717;BME280;4395;48.554;8.820;2023-06-22T08:02:30;95883.66;;;26.17;95.11
8717;BME280;4395;48.554;8.820;2023-06-22T08:04:33;95894.66;;;26.45;93.69
8717;BME280;4395;48.554;8.820;2023-06-22T08:06:39;95897.22;;;26.53;93.84
8717;BME280;4395;48.554;8.820;2023-06-22T08:08:42;95899.19;;;26.69;93.68
8717;BME280;4395;48.554;8.820;2023-06-22T08:10:45;95911.47;;;26.71;92.22
8717;BME280;4395;48.554;8.820;2023-06-22T08:12:48;95924.25;;;26.64;93.80
8717;BME280;4395;48.554;8.820;2023-06-22T08:14:50;95912.69;;;26.42;93.91
8717;BME280;4395;48.554;8.820;2023-06-22T08:16:53;95895.47;;;26.17;96.07
8717;BME280;4395;48.554;8.820;2023-06-22T08:18:56;95892.34;;;26.47;95.28
8717;BME280;4395;48.554;8.820;2023-06-22T08:20:59;95886.91;;;26.35;96.01
8717;BME280;4395;48.554;8.820;2023-06-22T08:23:06;95875.00;;;26.46;95.57
8717;BME280;4395;48.554;8.820;2023-06-22T08:25:09;95870.03;;;26.68;94.05
8717;BME280;4395;48.554;8.820;2023-06-22T08:27:12;95865.41;;;26.72;93.19
8717;BME280;4395;48.554;8.820;2023-06-22T08:29:16;95872.34;;;26.81;92.78
8717;BME280;4395;48.554;8.820;2023-06-22T08:31:19;95869.91;;;26.96;92.36
8717;BME280;4395;48.554;8.820;2023-06-22T08:33:21;95853.28;;;26.92;91.53
8717;BME280;4395;48.554;8.820;2023-06-22T08:35:30;95856.84;;;27.08;90.16
8717;BME280;4395;48.554;8.820;2023-06-22T08:37:33;95848.50;;;27.05;90.28
8717;BME280;4395;48.554;8.820;2023-06-22T08:39:38;95856.38;;;27.22;89.32
8717;BME280;4395;48.554;8.820;2023-06-22T08:41:41;95868.34;;;27.65;87.39
8717;BME280;4395;48.554;8.820;2023-06-22T08:43:44;95877.25;;;27.58;86.77
8717;BME280;4395;48.554;8.820;2023-06-22T08:45:47;95888.88;;;26.66;92.28
8717;BME280;4395;48.554;8.820;2023-06-22T08:47:49;95898.13;;;26.42;94.48
8717;BME280;4395;48.554;8.820;2023-06-22T08:49:52;95884.63;;;27.00;91.66
8717;BME280;4395;48.554;8.820;2023-06-22T08:51:55;95871.28;;;27.37;89.75
8717;BME280;4395;48.554;8.820;2023-06-22T08:53:58;95881.91;;;27.54;88.93
8717;BME280;4395;48.554;8.820;2023-06-22T08:56:02;95878.59;;;27.83;88.24
8717;BME280;4395;48.554;8.820;2023-06-22T08:58:05;95866.81;;;28.25;86.23
8717;BME280;4395;48.554;8.820;2023-06-22T09:00:09;95876.94;;;28.40;84.63
8717;BME280;4395;48.554;8.820;2023-06-22T09:02:17;95870.75;;;28.47;82.86
8717;BME280;4395;48.554;8.820;2023-06-22T09:04:20;95864.41;;;28.46;83.81
8717;BME280;4395;48.554;8.820;2023-06-22T09:06:24;95847.09;;;28.49;82.78
8717;BME280;4395;48.554;8.820;2023-06-22T09:08:27;95858.38;;;28.83;82.05
8717;BME280;4395;48.554;8.820;2023-06-22T09:10:30;95848.72;;;28.96;79.24
8717;BME280;4395;48.554;8.820;2023-06-22T09:12:35;95843.75;;;29.09;78.69
8717;BME280;4395;48.554;8.820;2023-06-22T09:14:39;95831.16;;;29.11;77.44
8717;BME280;4395;48.554;8.820;2023-06-22T09:16:42;95827.63;;;29.15;78.80
8717;BME280;4395;48.554;8.820;2023-06-22T09:18:48;95832.28;;;29.37;77.70
8717;BME280;4395;48.554;8.820;2023-06-22T09:20:51;95832.34;;;29.40;77.89
8717;BME280;4395;48.554;8.820;2023-06-22T09:22:54;95833.31;;;29.52;77.09
8717;BME280;4395;48.554;8.820;2023-06-22T09:24:58;95821.34;;;29.44;77.80
8717;BME280;4395;48.554;8.820;2023-06-22T09:27:01;95813.41;;;29.42;76.99
8717;BME280;4395;48.554;8.820;2023-06-22T09:29:06;95802.09;;;29.55;76.20
8717;BME280;4395;48.554;8.820;2023-06-22T09:31:08;95804.53;;;29.60;75.46
8717;BME280;4395;48.554;8.820;2023-06-22T09:33:11;95795.59;;;29.73;74.37
8717;BME280;4395;48.554;8.820;2023-06-22T09:35:14;95792.53;;;29.82;74.51
8717;BME280;4395;48.554;8.820;2023-06-22T09:37:17;95792.72;;;30.00;74.18
8717;BME280;4395;48.554;8.820;2023-06-22T09:39:19;95788.53;;;30.13;72.87
8717;BME280;4395;48.554;8.820;2023-06-22T09:41:22;95785.16;;;30.78;70.04
8717;BME280;4395;48.554;8.820;2023-06-22T09:43:25;95776.00;;;30.74;69.41
8717;BME280;4395;48.554;8.820;2023-06-22T09:45:29;95781.47;;;30.63;68.58
8717;BME280;4395;48.554;8.820;2023-06-22T09:47:32;95788.03;;;30.45;68.96
8717;BME280;4395;48.554;8.820;2023-06-22T09:49:35;95780.44;;;30.38;70.42
8717;BME280;4395;48.554;8.820;2023-06-22T09:51:49;95780.16;;;30.50;71.07
8717;BME280;4395;48.554;8.820;2023-06-22T09:53:52;95772.06;;;30.79;70.36
8717;BME280;4395;48.554;8.820;2023-06-22T09:55:56;95769.75;;;30.88;68.36
8717;BME280;4395;48.554;8.820;2023-06-22T09:57:59;95765.53;;;31.08;66.40
8717;BME280;4395;48.554;8.820;2023-06-22T10:00:03;95767.81;;;30.95;66.12
8717;BME280;4395;48.554;8.820;2023-06-22T10:02:11;95762.22;;;30.85;66.18
8717;BME280;4395;48.554;8.820;2023-06-22T10:04:14;95763.38;;;30.80;67.54
8717;BME280;4395;48.554;8.820;2023-06-22T10:06:18;95756.09;;;31.20;65.71
8717;BME280;4395;48.554;8.820;2023-06-22T10:08:20;95752.56;;;31.23;65.06
8717;BME280;4395;48.554;8.820;2023-06-22T10:10:23;95753.75;;;31.22;65.34
8717;BME280;4395;48.554;8.820;2023-06-22T10:12:27;95753.09;;;31.53;63.96
8717;BME280;4395;48.554;8.820;2023-06-22T10:14:30;95755.66;;;32.08;62.36
8717;BME280;4395;48.554;8.820;2023-06-22T10:16:33;95739.41;;;32.42;60.16
8717;BME280;4395;48.554;8.820;2023-06-22T10:18:38;95739.81;;;32.55;58.66
8717;BME280;4395;48.554;8.820;2023-06-22T10:20:41;95749.75;;;32.27;60.20
8717;BME280;4395;48.554;8.820;2023-06-22T10:22:44;95752.53;;;32.27;59.34
8717;BME280;4395;48.554;8.820;2023-06-22T10:24:47;95750.16;;;32.37;59.64
8717;BME280;4395;48.554;8.820;2023-06-22T10:26:50;95760.47;;;32.54;59.97
8717;BME280;4395;48.554;8.820;2023-06-22T10:28:53;95749.75;;;32.45;60.19
8717;BME280;4395;48.554;8.820;2023-06-22T10:31:15;95745.38;;;32.62;59.72
8717;BME280;4395;48.554;8.820;2023-06-22T10:33:18;95747.75;;;32.81;58.37
8717;BME280;4395;48.554;8.820;2023-06-22T10:35:23;95747.75;;;32.88;58.51
8717;BME280;4395;48.554;8.820;2023-06-22T10:37:26;95750.13;;;32.93;58.29
8717;BME280;4395;48.554;8.820;2023-06-22T10:39:28;95745.38;;;32.83;59.91
8717;BME280;4395;48.554;8.820;2023-06-22T10:41:33;95747.72;;;32.96;58.81
8717;BME280;4395;48.554;8.820;2023-06-22T10:43:36;95750.09;;;33.01;59.41
8717;BME280;4395;48.554;8.820;2023-06-22T10:45:39;95744.59;;;32.79;59.13
8717;BME280;4395;48.554;8.820;2023-06-22T10:47:41;95741.00;;;32.54;60.45
8717;BME280;4395;48.554;8.820;2023-06-22T10:49:44;95755.69;;;32.58;61.29
8717;BME280;4395;48.554;8.820;2023-06-22T10:51:49;95748.16;;;32.62;61.09
8717;BME280;4395;48.554;8.820;2023-06-22T10:53:51;95739.78;;;32.16;62.15
8717;BME280;4395;48.554;8.820;2023-06-22T10:55:54;95746.16;;;32.34;61.52
8717;BME280;4395;48.554;8.820;2023-06-22T10:57:58;95748.16;;;32.48;61.35
8717;BME280;4395;48.554;8.820;2023-06-22T11:00:01;95749.34;;;32.43;61.89
8717;BME280;4395;48.554;8.820;2023-06-22T11:02:06;95745.38;;;32.44;61.51
8717;BME280;4395;48.554;8.820;2023-06-22T11:04:09;95748.94;;;32.48;59.98
8717;BME280;4395;48.554;8.820;2023-06-22T11:06:12;95736.25;;;32.44;60.64
8717;BME280;4395;48.554;8.820;2023-06-22T11:08:18;95732.66;;;32.54;60.95